sensor_id;sensor_type;location;lat;lon;timestamp;P1;durP1;ratioP1;P2;durP2;ratioP2
22965;SDS011;11649;48.090;9.754;2022-07-29T00:00:56;20.80;;;16.92;;
22965;SDS011;11649;48.090;9.754;2022-07-29T00:03:23;22.85;;;17.15;;
22965;SDS011;11649;48.090;9.754;2022-07-29T00:05:50;23.40;;;16.35;;
22965;SDS011;11649;48.090;9.754;2022-07-29T00:08:19;20.23;;;16.48;;
22965;SDS011;11649;48.090;9.754;2022-07-29T00:10:46;20.05;;;15.75;;
22965;SDS011;11649;48.090;9.754;2022-07-29T00:13:13;22.70;;;17.13;;
22965;SDS011;11649;48.090;9.754;2022-07-29T00:15:40;20.65;;;16.40;;
22965;SDS011;11649;48.090;9.754;2022-07-29T00:18:07;24.77;;;19.35;;
22965;SDS011;11649;48.090;9.754;2022-07-29T00:20:33;20.30;;;17.15;;
22965;SDS011;11649;48.090;9.754;2022-07-29T00:23:00;24.73;;;19.08;;
22965;SDS011;11649;48.090;9.754;2022-07-29T00:25:27;25.90;;;18.17;;
22965;SDS011;11649;48.090;9.754;2022-07-29T00:27:54;25.63;;;18.38;;
22965;SDS011;11649;48.090;9.754;2022-07-29T00:30:21;32.08;;;20.33;;
22965;SDS011;11649;48.090;9.754;2022-07-29T00:32:48;25.67;;;18.13;;
22965;SDS011;11649;48.090;9.754;2022-07-29T00:35:15;27.45;;;19.58;;
22965;SDS011;11649;48.090;9.754;2022-07-29T00:38:00;26.88;;;18.52;;
22965;SDS011;11649;48.090;9.754;2022-07-29T00:40:27;30.67;;;18.25;;
22965;SDS011;11649;48.090;9.754;2022-07-29T00:42:54;27.08;;;18.42;;
22965;SDS011;11649;48.090;9.754;2022-07-29T00:45:21;26.30;;;18.52;;
22965;SDS011;11649;48.090;9.754;2022-07-29T00:47:48;26.33;;;19.83;;
22965;SDS011;11649;48.090;9.754;2022-07-29T00:50:15;24.65;;;18.90;;
22965;SDS011;11649;48.090;9.754;2022-07-29T00:52:43;22.00;;;17.67;;
22965;SDS011;11649;48.090;9.754;2022-07-29T00:55:13;24.52;;;19.20;;
22965;SDS011;11649;48.090;9.754;2022-07-29T00:57:42;24.75;;;18.52;;
22965;SDS011;11649;48.090;9.754;2022-07-29T01:00:12;23.48;;;18.20;;
22965;SDS011;11649;48.090;9.754;2022-07-29T01:02:50;22.70;;;18.85;;
22965;SDS011;11649;48.090;9.754;2022-07-29T01:05:18;22.95;;;18.40;;
22965;SDS011;11649;48.090;9.754;2022-07-29T01:07:46;24.35;;;19.67;;
22965;SDS011;11649;48.090;9.754;2022-07-29T01:10:15;26.27;;;19.80;;
22965;SDS011;11649;48.090;9.754;2022-07-29T01:12:44;22.45;;;18.30;;
22965;SDS011;11649;48.090;9.754;2022-07-29T01:15:13;23.58;;;18.73;;
22965;SDS011;11649;48.090;9.754;2022-07-29T01:34:43;21.75;;;16.77;;
22965;SDS011;11649;48.090;9.754;2022-07-29T01:37:20;22.83;;;17.77;;
22965;SDS011;11649;48.090;9.754;2022-07-29T01:40:08;25.70;;;17.85;;
22965;SDS011;11649;48.090;9.754;2022-07-29T01:42:52;22.02;;;17.77;;
22965;SDS011;11649;48.090;9.754;2022-07-29T01:48:14;23.38;;;16.30;;
22965;SDS011;11649;48.090;9.754;2022-07-29T01:50:52;15.25;;;13.45;;
22965;SDS011;11649;48.090;9.754;2022-07-29T01:53:27;16.65;;;14.85;;
22965;SDS011;11649;48.090;9.754;2022-07-29T01:56:03;18.35;;;14.55;;
22965;SDS011;11649;48.090;9.754;2022-07-29T01:58:31;17.83;;;12.98;;
22965;SDS011;11649;48.090;9.754;2022-07-29T02:00:59;17.23;;;13.88;;
22965;SDS011;11649;48.090;9.754;2022-07-29T02:03:26;18.33;;;14.52;;
22965;SDS011;11649;48.090;9.754;2022-07-29T02:05:55;17.83;;;14.98;;
22965;SDS011;11649;48.090;9.754;2022-07-29T02:08:23;16.15;;;12.98;;
22965;SDS011;11649;48.090;9.754;2022-07-29T02:10:52;15.02;;;12.98;;
22965;SDS011;11649;48.090;9.754;2022-07-29T02:13:19;13.77;;;12.38;;
22965;SDS011;11649;48.090;9.754;2022-07-29T02:15:49;12.15;;;10.80;;
22965;SDS011;11649;48.090;9.754;2022-07-29T02:18:18;11.23;;;10.10;;
22965;SDS011;11649;48.090;9.754;2022-07-29T02:20:47;9.25;;;8.13;;
22965;SDS011;11649;48.090;9.754;2022-07-29T02:23:20;10.32;;;9.10;;
22965;SDS011;11649;48.090;9.754;2022-07-29T02:25:49;10.13;;;9.10;;
22965;SDS011;11649;48.090;9.754;2022-07-29T02:28:20;11.18;;;9.38;;
22965;SDS011;11649;48.090;9.754;2022-07-29T02:30:50;13.23;;;9.98;;
22965;SDS011;11649;48.090;9.754;2022-07-29T02:33:19;10.73;;;9.23;;
22965;SDS011;11649;48.090;9.754;2022-07-29T02:35:47;13.05;;;9.57;;
22965;SDS011;11649;48.090;9.754;2022-07-29T02:38:16;13.15;;;9.80;;
22965;SDS011;11649;48.090;9.754;2022-07-29T02:41:05;10.05;;;9.02;;
22965;SDS011;11649;48.090;9.754;2022-07-29T02:43:38;10.85;;;9.50;;
22965;SDS011;11649;48.090;9.754;2022-07-29T02:46:05;12.57;;;9.48;;
22965;SDS011;11649;48.090;9.754;2022-07-29T02:49:10;13.18;;;9.80;;
22965;SDS011;11649;48.090;9.754;2022-07-29T02:51:58;10.88;;;9.77;;
22965;SDS011;11649;48.090;9.754;2022-07-29T02:54:50;12.30;;;9.93;;
22965;SDS011;11649;48.090;9.754;2022-07-29T03:00:19;15.82;;;9.25;;
22965;SDS011;11649;48.090;9.754;2022-07-29T03:02:50;13.02;;;8.57;;
22965;SDS011;11649;48.090;9.754;2022-07-29T03:05:20;11.20;;;8.52;;
22965;SDS011;11649;48.090;9.754;2022-07-29T03:08:00;9.73;;;8.32;;
22965;SDS011;11649;48.090;9.754;2022-07-29T03:10:29;9.05;;;8.15;;
22965;SDS011;11649;48.090;9.754;2022-07-29T03:12:57;11.05;;;8.48;;
22965;SDS011;11649;48.090;9.754;2022-07-29T03:15:25;12.70;;;7.72;;
22965;SDS011;11649;48.090;9.754;2022-07-29T03:17:53;12.50;;;8.20;;
22965;SDS011;11649;48.090;9.754;2022-07-29T03:20:22;9.05;;;7.03;;
22965;SDS011;11649;48.090;9.754;2022-07-29T03:22:49;11.68;;;6.20;;
22965;SDS011;11649;48.090;9.754;2022-07-29T03:25:18;8.85;;;6.80;;
22965;SDS011;11649;48.090;9.754;2022-07-29T03:27:46;7.82;;;6.70;;
22965;SDS011;11649;48.090;9.754;2022-07-29T03:30:16;10.82;;;6.95;;
22965;SDS011;11649;48.090;9.754;2022-07-29T03:32:47;9.77;;;7.32;;
22965;SDS011;11649;48.090;9.754;2022-07-29T03:35:17;10.57;;;6.45;;
22965;SDS011;11649;48.090;9.754;2022-07-29T03:37:47;12.27;;;7.07;;
22965;SDS011;11649;48.090;9.754;2022-07-29T03:40:16;9.77;;;7.00;;
22965;SDS011;11649;48.090;9.754;2022-07-29T03:42:48;7.88;;;5.72;;
22965;SDS011;11649;48.090;9.754;2022-07-29T03:45:17;6.93;;;4.20;;
22965;SDS011;11649;48.090;9.754;2022-07-29T03:47:47;9.85;;;5.43;;
22965;SDS011;11649;48.090;9.754;2022-07-29T03:50:25;8.77;;;5.13;;
22965;SDS011;11649;48.090;9.754;2022-07-29T03:52:52;6.60;;;5.50;;
22965;SDS011;11649;48.090;9.754;2022-07-29T03:55:19;6.72;;;5.30;;
22965;SDS011;11649;48.090;9.754;2022-07-29T03:57:46;8.65;;;4.00;;
22965;SDS011;11649;48.090;9.754;2022-07-29T04:00:14;9.90;;;4.82;;
22965;SDS011;11649;48.090;9.754;2022-07-29T04:02:43;8.20;;;4.53;;
22965;SDS011;11649;48.090;9.754;2022-07-29T04:05:15;9.18;;;4.70;;
22965;SDS011;11649;48.090;9.754;2022-07-29T04:07:45;9.25;;;4.75;;
22965;SDS011;11649;48.090;9.754;2022-07-29T04:10:15;6.28;;;3.97;;
22965;SDS011;11649;48.090;9.754;2022-07-29T04:12:57;4.05;;;3.40;;
22965;SDS011;11649;48.090;9.754;2022-07-29T04:15:24;4.93;;;3.20;;
22965;SDS011;11649;48.090;9.754;2022-07-29T04:17:56;4.90;;;3.90;;
22965;SDS011;11649;48.090;9.754;2022-07-29T04:20:24;5.40;;;3.47;;
22965;SDS011;11649;48.090;9.754;2022-07-29T04:22:50;4.93;;;4.38;;
22965;SDS011;11649;48.090;9.754;2022-07-29T04:25:17;6.95;;;4.15;;
22965;SDS011;11649;48.090;9.754;2022-07-29T04:27:44;4.80;;;4.38;;
22965;SDS011;11649;48.090;9.754;2022-07-29T04:30:29;6.72;;;4.78;;
22965;SDS011;11649;48.090;9.754;2022-07-29T04:32:57;5.85;;;4.03;;
22965;SDS011;11649;48.090;9.754;2022-07-29T04:35:25;5.72;;;4.28;;
22965;SDS011;11649;48.090;9.754;2022-07-29T04:37:52;5.05;;;4.40;;
22965;SDS011;11649;48.090;9.754;2022-07-29T04:40:19;6.55;;;4.40;;
22965;SDS011;11649;48.090;9.754;2022-07-29T04:42:46;5.45;;;4.25;;
22965;SDS011;11649;48.090;9.754;2022-07-29T04:45:14;6.82;;;4.38;;
22965;SDS011;11649;48.090;9.754;2022-07-29T04:47:47;7.07;;;4.80;;
22965;SDS011;11649;48.090;9.754;2022-07-29T04:50:14;5.00;;;4.07;;
22965;SDS011;11649;48.090;9.754;2022-07-29T04:52:41;7.25;;;4.20;;
22965;SDS011;11649;48.090;9.754;2022-07-29T04:55:08;7.53;;;4.43;;
22965;SDS011;11649;48.090;9.754;2022-07-29T04:57:35;7.85;;;5.13;;
22965;SDS011;11649;48.090;9.754;2022-07-29T05:00:02;5.53;;;4.38;;
22965;SDS011;11649;48.090;9.754;2022-07-29T05:02:30;9.48;;;4.10;;
22965;SDS011;11649;48.090;9.754;2022-07-29T05:04:57;5.35;;;4.50;;
22965;SDS011;11649;48.090;9.754;2022-07-29T05:07:24;5.82;;;3.90;;
22965;SDS011;11649;48.090;9.754;2022-07-29T05:09:51;7.47;;;4.88;;
22965;SDS011;11649;48.090;9.754;2022-07-29T05:12:19;5.80;;;4.65;;
22965;SDS011;11649;48.090;9.754;2022-07-29T05:14:45;6.82;;;4.70;;
22965;SDS011;11649;48.090;9.754;2022-07-29T05:17:12;8.10;;;4.80;;
22965;SDS011;11649;48.090;9.754;2022-07-29T05:19:39;7.28;;;3.50;;
22965;SDS011;11649;48.090;9.754;2022-07-29T05:22:06;5.18;;;3.50;;
22965;SDS011;11649;48.090;9.754;2022-07-29T05:24:33;4.28;;;3.65;;
22965;SDS011;11649;48.090;9.754;2022-07-29T05:26:59;3.90;;;3.50;;
22965;SDS011;11649;48.090;9.754;2022-07-29T05:29:26;5.05;;;3.70;;
22965;SDS011;11649;48.090;9.754;2022-07-29T05:32:10;3.85;;;3.00;;
22965;SDS011;11649;48.090;9.754;2022-07-29T05:34:38;5.55;;;2.90;;
22965;SDS011;11649;48.090;9.754;2022-07-29T05:37:17;4.45;;;3.10;;
22965;SDS011;11649;48.090;9.754;2022-07-29T05:39:45;5.72;;;3.00;;
22965;SDS011;11649;48.090;9.754;2022-07-29T05:42:22;9.85;;;3.10;;
22965;SDS011;11649;48.090;9.754;2022-07-29T05:44:49;3.90;;;2.55;;
22965;SDS011;11649;48.090;9.754;2022-07-29T05:47:16;4.80;;;2.85;;
22965;SDS011;11649;48.090;9.754;2022-07-29T05:49:42;5.18;;;2.90;;
22965;SDS011;11649;48.090;9.754;2022-07-29T05:52:09;4.00;;;2.65;;
22965;SDS011;11649;48.090;9.754;2022-07-29T05:54:36;7.25;;;3.13;;
22965;SDS011;11649;48.090;9.754;2022-07-29T05:57:03;5.32;;;2.67;;
22965;SDS011;11649;48.090;9.754;2022-07-29T05:59:34;6.82;;;3.00;;
22965;SDS011;11649;48.090;9.754;2022-07-29T06:02:03;5.95;;;2.85;;
22965;SDS011;11649;48.090;9.754;2022-07-29T06:04:31;4.68;;;2.90;;
22965;SDS011;11649;48.090;9.754;2022-07-29T06:07:00;6.78;;;2.67;;
22965;SDS011;11649;48.090;9.754;2022-07-29T06:09:28;4.68;;;2.55;;
22965;SDS011;11649;48.090;9.754;2022-07-29T06:11:55;4.55;;;2.53;;
22965;SDS011;11649;48.090;9.754;2022-07-29T06:14:22;4.82;;;2.10;;
22965;SDS011;11649;48.090;9.754;2022-07-29T06:16:49;5.75;;;2.72;;
22965;SDS011;11649;48.090;9.754;2022-07-29T06:19:16;3.90;;;2.33;;
22965;SDS011;11649;48.090;9.754;2022-07-29T06:21:43;3.80;;;2.30;;
22965;SDS011;11649;48.090;9.754;2022-07-29T06:24:10;4.90;;;2.35;;
22965;SDS011;11649;48.090;9.754;2022-07-29T06:26:39;5.32;;;2.70;;
22965;SDS011;11649;48.090;9.754;2022-07-29T06:29:06;4.32;;;2.33;;
22965;SDS011;11649;48.090;9.754;2022-07-29T06:31:34;3.08;;;2.20;;
22965;SDS011;11649;48.090;9.754;2022-07-29T06:34:01;7.53;;;2.78;;
22965;SDS011;11649;48.090;9.754;2022-07-29T06:36:28;2.75;;;2.20;;
22965;SDS011;11649;48.090;9.754;2022-07-29T06:38:55;3.10;;;2.20;;
22965;SDS011;11649;48.090;9.754;2022-07-29T06:41:23;4.28;;;2.58;;
22965;SDS011;11649;48.090;9.754;2022-07-29T06:43:49;8.55;;;2.65;;
22965;SDS011;11649;48.090;9.754;2022-07-29T06:46:22;5.57;;;2.80;;
22965;SDS011;11649;48.090;9.754;2022-07-29T06:48:49;5.07;;;2.70;;
22965;SDS011;11649;48.090;9.754;2022-07-29T06:51:18;7.10;;;2.65;;
22965;SDS011;11649;48.090;9.754;2022-07-29T06:53:49;3.03;;;2.50;;
22965;SDS011;11649;48.090;9.754;2022-07-29T06:56:28;4.18;;;2.50;;
22965;SDS011;11649;48.090;9.754;2022-07-29T06:58:56;5.35;;;2.50;;
22965;SDS011;11649;48.090;9.754;2022-07-29T07:01:26;5.22;;;2.50;;
22965;SDS011;11649;48.090;9.754;2022-07-29T07:03:55;8.55;;;2.95;;
22965;SDS011;11649;48.090;9.754;2022-07-29T07:06:22;6.38;;;3.33;;
22965;SDS011;11649;48.090;9.754;2022-07-29T07:08:49;6.50;;;3.38;;
22965;SDS011;11649;48.090;9.754;2022-07-29T07:11:16;6.40;;;3.53;;
22965;SDS011;11649;48.090;9.754;2022-07-29T07:13:43;6.18;;;3.20;;
22965;SDS011;11649;48.090;9.754;2022-07-29T07:16:10;6.75;;;3.00;;
22965;SDS011;11649;48.090;9.754;2022-07-29T07:18:37;5.13;;;2.80;;
22965;SDS011;11649;48.090;9.754;2022-07-29T07:21:04;6.50;;;2.95;;
22965;SDS011;11649;48.090;9.754;2022-07-29T07:23:31;8.52;;;2.97;;
22965;SDS011;11649;48.090;9.754;2022-07-29T07:25:59;4.25;;;2.78;;
22965;SDS011;11649;48.090;9.754;2022-07-29T07:28:29;6.78;;;3.15;;
22965;SDS011;11649;48.090;9.754;2022-07-29T07:30:55;6.57;;;3.00;;
22965;SDS011;11649;48.090;9.754;2022-07-29T07:33:25;4.88;;;2.80;;
22965;SDS011;11649;48.090;9.754;2022-07-29T07:35:52;7.00;;;3.25;;
22965;SDS011;11649;48.090;9.754;2022-07-29T07:38:20;6.18;;;2.92;;
22965;SDS011;11649;48.090;9.754;2022-07-29T07:40:47;9.02;;;3.58;;
22965;SDS011;11649;48.090;9.754;2022-07-29T07:43:14;4.18;;;2.88;;
22965;SDS011;11649;48.090;9.754;2022-07-29T07:45:41;3.75;;;2.92;;
22965;SDS011;11649;48.090;9.754;2022-07-29T07:48:08;5.75;;;3.25;;
22965;SDS011;11649;48.090;9.754;2022-07-29T07:50:36;8.32;;;3.15;;
22965;SDS011;11649;48.090;9.754;2022-07-29T07:53:03;4.47;;;3.05;;
22965;SDS011;11649;48.090;9.754;2022-07-29T07:55:30;5.35;;;2.90;;
22965;SDS011;11649;48.090;9.754;2022-07-29T07:58:17;4.13;;;3.22;;
22965;SDS011;11649;48.090;9.754;2022-07-29T08:01:00;4.80;;;2.85;;
22965;SDS011;11649;48.090;9.754;2022-07-29T08:03:28;4.00;;;2.80;;
22965;SDS011;11649;48.090;9.754;2022-07-29T08:06:25;4.22;;;2.33;;
22965;SDS011;11649;48.090;9.754;2022-07-29T08:09:52;6.88;;;2.85;;
22965;SDS011;11649;48.090;9.754;2022-07-29T08:19:21;3.50;;;2.72;;
22965;SDS011;11649;48.090;9.754;2022-07-29T08:21:49;4.55;;;2.90;;
22965;SDS011;11649;48.090;9.754;2022-07-29T08:24:16;3.05;;;2.70;;
22965;SDS011;11649;48.090;9.754;2022-07-29T08:27:02;4.35;;;3.05;;
22965;SDS011;11649;48.090;9.754;2022-07-29T08:29:29;3.53;;;3.22;;
22965;SDS011;11649;48.090;9.754;2022-07-29T08:31:55;4.68;;;2.70;;
22965;SDS011;11649;48.090;9.754;2022-07-29T08:34:22;2.65;;;2.38;;
22965;SDS011;11649;48.090;9.754;2022-07-29T08:36:53;5.30;;;2.65;;
22965;SDS011;11649;48.090;9.754;2022-07-29T08:39:20;4.68;;;2.60;;
22965;SDS011;11649;48.090;9.754;2022-07-29T08:41:47;3.55;;;2.83;;
22965;SDS011;11649;48.090;9.754;2022-07-29T08:44:22;3.83;;;3.00;;
22965;SDS011;11649;48.090;9.754;2022-07-29T08:46:56;5.00;;;3.17;;
22965;SDS011;11649;48.090;9.754;2022-07-29T08:49:23;4.40;;;3.10;;
22965;SDS011;11649;48.090;9.754;2022-07-29T08:51:50;5.05;;;3.30;;
22965;SDS011;11649;48.090;9.754;2022-07-29T08:54:17;5.20;;;3.15;;
22965;SDS011;11649;48.090;9.754;2022-07-29T08:56:48;4.32;;;2.85;;
22965;SDS011;11649;48.090;9.754;2022-07-29T08:59:16;4.38;;;3.20;;
22965;SDS011;11649;48.090;9.754;2022-07-29T09:01:47;5.07;;;2.90;;
22965;SDS011;11649;48.090;9.754;2022-07-29T09:04:17;5.35;;;3.30;;
22965;SDS011;11649;48.090;9.754;2022-07-29T09:06:47;4.50;;;2.90;;
22965;SDS011;11649;48.090;9.754;2022-07-29T09:09:17;7.78;;;3.03;;
22965;SDS011;11649;48.090;9.754;2022-07-29T09:11:49;2.90;;;2.60;;
22965;SDS011;11649;48.090;9.754;2022-07-29T09:14:17;3.15;;;2.65;;
22965;SDS011;11649;48.090;9.754;2022-07-29T09:16:52;3.10;;;2.80;;
22965;SDS011;11649;48.090;9.754;2022-07-29T09:19:24;3.30;;;2.70;;
22965;SDS011;11649;48.090;9.754;2022-07-29T09:21:52;4.07;;;3.15;;
22965;SDS011;11649;48.090;9.754;2022-07-29T09:24:44;3.28;;;2.97;;
22965;SDS011;11649;48.090;9.754;2022-07-29T09:27:25;4.78;;;3.22;;
22965;SDS011;11649;48.090;9.754;2022-07-29T09:29:59;3.95;;;3.10;;
22965;SDS011;11649;48.090;9.754;2022-07-29T09:32:27;4.20;;;3.50;;
22965;SDS011;11649;48.090;9.754;2022-07-29T09:37:44;3.90;;;3.40;;
22965;SDS011;11649;48.090;9.754;2022-07-29T09:40:15;3.58;;;3.28;;
22965;SDS011;11649;48.090;9.754;2022-07-29T09:42:44;4.40;;;3.58;;
22965;SDS011;11649;48.090;9.754;2022-07-29T09:45:12;3.55;;;3.25;;
22965;SDS011;11649;48.090;9.754;2022-07-29T09:47:51;4.10;;;3.65;;
22965;SDS011;11649;48.090;9.754;2022-07-29T09:50:18;5.25;;;3.83;;
22965;SDS011;11649;48.090;9.754;2022-07-29T09:52:50;5.78;;;3.60;;
22965;SDS011;11649;48.090;9.754;2022-07-29T09:55:19;4.32;;;3.30;;
22965;SDS011;11649;48.090;9.754;2022-07-29T09:57:47;4.50;;;3.70;;
22965;SDS011;11649;48.090;9.754;2022-07-29T10:00:15;6.25;;;3.78;;
22965;SDS011;11649;48.090;9.754;2022-07-29T10:02:44;5.05;;;3.72;;
22965;SDS011;11649;48.090;9.754;2022-07-29T10:05:30;5.18;;;4.00;;
22965;SDS011;11649;48.090;9.754;2022-07-29T10:08:02;4.78;;;3.58;;
22965;SDS011;11649;48.090;9.754;2022-07-29T10:10:30;5.75;;;3.70;;
22965;SDS011;11649;48.090;9.754;2022-07-29T10:13:04;4.18;;;3.28;;
22965;SDS011;11649;48.090;9.754;2022-07-29T10:15:42;4.80;;;3.80;;
22965;SDS011;11649;48.090;9.754;2022-07-29T10:18:12;7.63;;;4.18;;
22965;SDS011;11649;48.090;9.754;2022-07-29T10:20:40;7.43;;;3.95;;
22965;SDS011;11649;48.090;9.754;2022-07-29T10:23:08;7.80;;;4.32;;
22965;SDS011;11649;48.090;9.754;2022-07-29T10:25:35;5.07;;;3.78;;
22965;SDS011;11649;48.090;9.754;2022-07-29T10:28:02;5.18;;;3.85;;
22965;SDS011;11649;48.090;9.754;2022-07-29T10:30:31;4.25;;;3.30;;
22965;SDS011;11649;48.090;9.754;2022-07-29T10:44:28;5.05;;;3.40;;
22965;SDS011;11649;48.090;9.754;2022-07-29T10:46:57;6.18;;;3.63;;
22965;SDS011;11649;48.090;9.754;2022-07-29T10:49:25;4.72;;;3.58;;
22965;SDS011;11649;48.090;9.754;2022-07-29T10:57:12;5.18;;;3.50;;
22965;SDS011;11649;48.090;9.754;2022-07-29T10:59:45;3.50;;;3.20;;
22965;SDS011;11649;48.090;9.754;2022-07-29T11:05:12;3.90;;;3.10;;
22965;SDS011;11649;48.090;9.754;2022-07-29T11:10:46;3.15;;;2.70;;
22965;SDS011;11649;48.090;9.754;2022-07-29T11:13:44;6.75;;;2.97;;
22965;SDS011;11649;48.090;9.754;2022-07-29T11:16:15;5.00;;;2.60;;
22965;SDS011;11649;48.090;9.754;2022-07-29T11:21:42;4.57;;;2.80;;
22965;SDS011;11649;48.090;9.754;2022-07-29T11:24:24;3.10;;;2.80;;
22965;SDS011;11649;48.090;9.754;2022-07-29T11:29:40;3.40;;;3.10;;
22965;SDS011;11649;48.090;9.754;2022-07-29T11:32:19;4.47;;;2.83;;
22965;SDS011;11649;48.090;9.754;2022-07-29T11:34:48;5.43;;;3.30;;
22965;SDS011;11649;48.090;9.754;2022-07-29T11:37:46;4.35;;;3.50;;
22965;SDS011;11649;48.090;9.754;2022-07-29T11:40:36;5.03;;;3.22;;
22965;SDS011;11649;48.090;9.754;2022-07-29T11:43:07;3.63;;;3.10;;
22965;SDS011;11649;48.090;9.754;2022-07-29T11:45:46;3.30;;;3.00;;
22965;SDS011;11649;48.090;9.754;2022-07-29T11:48:17;4.38;;;3.10;;
22965;SDS011;11649;48.090;9.754;2022-07-29T11:50:57;3.70;;;3.40;;
22965;SDS011;11649;48.090;9.754;2022-07-29T11:53:25;3.55;;;3.25;;
22965;SDS011;11649;48.090;9.754;2022-07-29T11:56:12;6.53;;;3.78;;
22965;SDS011;11649;48.090;9.754;2022-07-29T11:58:42;4.25;;;3.47;;
22965;SDS011;11649;48.090;9.754;2022-07-29T12:01:12;5.63;;;3.88;;
22965;SDS011;11649;48.090;9.754;2022-07-29T12:03:43;5.28;;;3.50;;
22965;SDS011;11649;48.090;9.754;2022-07-29T12:06:13;5.75;;;3.92;;
22965;SDS011;11649;48.090;9.754;2022-07-29T12:08:46;4.30;;;3.90;;
22965;SDS011;11649;48.090;9.754;2022-07-29T12:11:17;6.90;;;3.95;;
22965;SDS011;11649;48.090;9.754;2022-07-29T12:13:47;4.80;;;3.72;;
22965;SDS011;11649;48.090;9.754;2022-07-29T12:16:15;5.10;;;3.70;;
22965;SDS011;11649;48.090;9.754;2022-07-29T12:18:59;4.15;;;3.75;;
22965;SDS011;11649;48.090;9.754;2022-07-29T12:21:28;5.03;;;3.75;;
22965;SDS011;11649;48.090;9.754;2022-07-29T12:24:24;6.57;;;3.70;;
22965;SDS011;11649;48.090;9.754;2022-07-29T12:26:53;4.30;;;3.90;;
22965;SDS011;11649;48.090;9.754;2022-07-29T12:29:22;4.65;;;4.00;;
22965;SDS011;11649;48.090;9.754;2022-07-29T12:32:00;5.20;;;3.60;;
22965;SDS011;11649;48.090;9.754;2022-07-29T12:34:28;4.65;;;4.15;;
22965;SDS011;11649;48.090;9.754;2022-07-29T12:36:55;3.78;;;3.40;;
22965;SDS011;11649;48.090;9.754;2022-07-29T12:39:22;4.65;;;3.90;;
22965;SDS011;11649;48.090;9.754;2022-07-29T12:41:52;4.00;;;3.40;;
22965;SDS011;11649;48.090;9.754;2022-07-29T12:44:51;3.67;;;2.92;;
22965;SDS011;11649;48.090;9.754;2022-07-29T12:47:18;7.60;;;3.20;;
22965;SDS011;11649;48.090;9.754;2022-07-29T12:49:46;3.67;;;2.97;;
22965;SDS011;11649;48.090;9.754;2022-07-29T12:52:27;4.20;;;2.97;;
22965;SDS011;11649;48.090;9.754;2022-07-29T12:54:58;3.42;;;2.72;;
22965;SDS011;11649;48.090;9.754;2022-07-29T12:57:25;5.10;;;2.47;;
22965;SDS011;11649;48.090;9.754;2022-07-29T13:00:00;2.45;;;2.20;;
22965;SDS011;11649;48.090;9.754;2022-07-29T13:02:29;5.03;;;2.47;;
22965;SDS011;11649;48.090;9.754;2022-07-29T13:04:56;4.47;;;2.53;;
22965;SDS011;11649;48.090;9.754;2022-07-29T13:07:25;3.40;;;2.67;;
22965;SDS011;11649;48.090;9.754;2022-07-29T13:10:14;2.72;;;2.30;;
22965;SDS011;11649;48.090;9.754;2022-07-29T13:15:28;3.35;;;2.10;;
22965;SDS011;11649;48.090;9.754;2022-07-29T13:17:55;3.40;;;2.42;;
22965;SDS011;11649;48.090;9.754;2022-07-29T13:20:26;4.00;;;2.22;;
22965;SDS011;11649;48.090;9.754;2022-07-29T13:22:58;6.32;;;2.50;;
22965;SDS011;11649;48.090;9.754;2022-07-29T13:25:30;3.72;;;2.67;;
22965;SDS011;11649;48.090;9.754;2022-07-29T13:27:58;2.45;;;2.25;;
22965;SDS011;11649;48.090;9.754;2022-07-29T13:30:25;3.67;;;2.38;;
22965;SDS011;11649;48.090;9.754;2022-07-29T13:32:52;3.03;;;2.35;;
22965;SDS011;11649;48.090;9.754;2022-07-29T13:35:19;3.17;;;2.10;;
22965;SDS011;11649;48.090;9.754;2022-07-29T13:37:47;3.33;;;2.45;;
22965;SDS011;11649;48.090;9.754;2022-07-29T13:40:17;2.42;;;2.22;;
22965;SDS011;11649;48.090;9.754;2022-07-29T13:42:44;2.63;;;2.40;;
22965;SDS011;11649;48.090;9.754;2022-07-29T13:45:12;6.22;;;2.88;;
22965;SDS011;11649;48.090;9.754;2022-07-29T13:47:39;3.95;;;2.25;;
22965;SDS011;11649;48.090;9.754;2022-07-29T13:50:12;2.87;;;2.00;;
22965;SDS011;11649;48.090;9.754;2022-07-29T13:52:39;4.90;;;2.60;;
22965;SDS011;11649;48.090;9.754;2022-07-29T13:55:06;4.10;;;2.38;;
22965;SDS011;11649;48.090;9.754;2022-07-29T13:57:34;3.70;;;2.30;;
22965;SDS011;11649;48.090;9.754;2022-07-29T14:00:01;3.25;;;2.38;;
22965;SDS011;11649;48.090;9.754;2022-07-29T14:02:28;4.03;;;2.47;;
22965;SDS011;11649;48.090;9.754;2022-07-29T14:04:55;8.43;;;2.55;;
22965;SDS011;11649;48.090;9.754;2022-07-29T14:07:22;5.20;;;2.60;;
22965;SDS011;11649;48.090;9.754;2022-07-29T14:09:49;3.67;;;2.60;;
22965;SDS011;11649;48.090;9.754;2022-07-29T14:12:16;6.70;;;2.80;;
22965;SDS011;11649;48.090;9.754;2022-07-29T14:14:43;3.65;;;2.50;;
22965;SDS011;11649;48.090;9.754;2022-07-29T14:17:12;3.45;;;2.40;;
22965;SDS011;11649;48.090;9.754;2022-07-29T14:19:39;5.78;;;2.65;;
22965;SDS011;11649;48.090;9.754;2022-07-29T14:22:07;3.65;;;2.80;;
22965;SDS011;11649;48.090;9.754;2022-07-29T14:24:35;2.88;;;2.50;;
22965;SDS011;11649;48.090;9.754;2022-07-29T14:27:06;3.72;;;2.60;;
22965;SDS011;11649;48.090;9.754;2022-07-29T14:29:34;5.05;;;3.00;;
22965;SDS011;11649;48.090;9.754;2022-07-29T14:32:06;3.10;;;2.75;;
22965;SDS011;11649;48.090;9.754;2022-07-29T14:34:34;6.47;;;2.40;;
22965;SDS011;11649;48.090;9.754;2022-07-29T14:37:02;2.60;;;2.33;;
22965;SDS011;11649;48.090;9.754;2022-07-29T14:39:31;10.50;;;2.83;;
22965;SDS011;11649;48.090;9.754;2022-07-29T14:42:04;5.97;;;2.78;;
22965;SDS011;11649;48.090;9.754;2022-07-29T14:44:31;4.32;;;2.78;;
22965;SDS011;11649;48.090;9.754;2022-07-29T14:46:59;3.97;;;2.75;;
22965;SDS011;11649;48.090;9.754;2022-07-29T14:49:33;2.92;;;1.48;;
22965;SDS011;11649;48.090;9.754;2022-07-29T14:52:00;4.30;;;1.67;;
22965;SDS011;11649;48.090;9.754;2022-07-29T14:54:28;1.83;;;1.10;;
22965;SDS011;11649;48.090;9.754;2022-07-29T14:56:54;1.88;;;1.17;;
22965;SDS011;11649;48.090;9.754;2022-07-29T14:59:23;3.10;;;1.60;;
22965;SDS011;11649;48.090;9.754;2022-07-29T15:01:51;3.97;;;1.90;;
22965;SDS011;11649;48.090;9.754;2022-07-29T15:04:18;2.45;;;1.70;;
22965;SDS011;11649;48.090;9.754;2022-07-29T15:06:45;2.03;;;1.83;;
22965;SDS011;11649;48.090;9.754;2022-07-29T15:09:12;2.90;;;2.03;;
22965;SDS011;11649;48.090;9.754;2022-07-29T15:11:39;4.47;;;1.90;;
22965;SDS011;11649;48.090;9.754;2022-07-29T15:14:06;2.80;;;2.33;;
22965;SDS011;11649;48.090;9.754;2022-07-29T15:16:34;3.35;;;2.25;;
22965;SDS011;11649;48.090;9.754;2022-07-29T15:19:03;3.97;;;2.90;;
22965;SDS011;11649;48.090;9.754;2022-07-29T15:21:30;6.32;;;2.85;;
22965;SDS011;11649;48.090;9.754;2022-07-29T15:23:57;4.93;;;3.38;;
22965;SDS011;11649;48.090;9.754;2022-07-29T15:26:23;8.85;;;3.65;;
22965;SDS011;11649;48.090;9.754;2022-07-29T15:28:50;6.25;;;3.63;;
22965;SDS011;11649;48.090;9.754;2022-07-29T15:31:17;5.93;;;3.60;;
22965;SDS011;11649;48.090;9.754;2022-07-29T15:33:45;5.50;;;3.65;;
22965;SDS011;11649;48.090;9.754;2022-07-29T15:36:12;9.82;;;4.47;;
22965;SDS011;11649;48.090;9.754;2022-07-29T15:38:59;6.97;;;4.43;;
22965;SDS011;11649;48.090;9.754;2022-07-29T15:41:26;6.25;;;3.95;;
22965;SDS011;11649;48.090;9.754;2022-07-29T15:43:52;4.70;;;3.40;;
22965;SDS011;11649;48.090;9.754;2022-07-29T15:46:19;4.22;;;3.40;;
22965;SDS011;11649;48.090;9.754;2022-07-29T15:49:05;4.18;;;3.17;;
22965;SDS011;11649;48.090;9.754;2022-07-29T15:51:33;4.80;;;3.58;;
22965;SDS011;11649;48.090;9.754;2022-07-29T15:54:00;3.92;;;3.53;;
22965;SDS011;11649;48.090;9.754;2022-07-29T15:56:28;4.07;;;3.60;;
22965;SDS011;11649;48.090;9.754;2022-07-29T15:58:56;3.83;;;3.45;;
22965;SDS011;11649;48.090;9.754;2022-07-29T16:01:23;3.45;;;3.15;;
22965;SDS011;11649;48.090;9.754;2022-07-29T16:03:51;9.80;;;4.05;;
22965;SDS011;11649;48.090;9.754;2022-07-29T16:06:18;5.57;;;3.30;;